Time;durP1;ratioP1;P1;durP2;ratioP2;P2;SDS_P1;SDS_P2;PMS_P1;PMS_P2;Temp;Humidity;BMP_temperature;BMP_pressure;BME280_temperature;BME280_humidity;BME280_pressure;Samples;Min_cycle;Max_cycle;Signal;HPM_P1;HPM_P2
2023/01/17 00:00:29;;;;;;;7.28;4.45;;;-2.60;99.90;;;;;;5022322;28;20102;-78
2023/01/17 00:02:56;;;;;;;9.15;5.32;;;-2.60;99.90;;;;;;5054513;28;20041;-78
2023/01/17 00:10:53;;;;;;;9.98;5.50;;;-2.60;99.90;;;;;;5055565;28;20052;-78
2023/01/17 00:13:20;;;;;;;9.35;5.50;;;-2.70;99.90;;;;;;5038177;28;20083;-78
2023/01/17 00:15:47;;;;;;;6.88;4.97;;;-2.70;99.90;;;;;;5054260;28;20426;-78
2023/01/17 00:18:13;;;;;;;7.45;4.75;;;-2.70;99.90;;;;;;5055147;28;20135;-78
2023/01/17 00:26:07;;;;;;;8.30;5.53;;;-2.70;99.90;;;;;;5037384;28;20048;-78
2023/01/17 01:35:40;;;;;;;8.23;5.80;;;-3.10;99.90;;;;;;5033288;28;20325;-78
2023/01/17 01:38:07;;;;;;;9.80;5.55;;;-3.10;99.90;;;;;;5016829;28;20038;-78
2023/01/17 01:40:34;;;;;;;9.73;6.85;;;-3.10;99.90;;;;;;5033212;28;20057;-78
2023/01/17 01:43:04;;;;;;;8.85;5.82;;;-3.10;99.90;;;;;;5020890;28;20033;-78
2023/01/17 01:45:31;;;;;;;8.38;5.75;;;-3.10;99.90;;;;;;5053855;28;20055;-78
2023/01/17 01:47:58;;;;;;;8.77;5.55;;;-3.10;99.90;;;;;;5036770;28;20037;-78
2023/01/17 01:50:24;;;;;;;8.77;5.45;;;-3.10;99.90;;;;;;5019221;28;20037;-78
2023/01/17 01:52:51;;;;;;;7.88;5.15;;;-3.10;99.90;;;;;;5053972;28;20037;-78
2023/01/17 01:55:18;;;;;;;7.10;5.18;;;-3.10;99.90;;;;;;5053037;28;20049;-78
2023/01/17 01:57:44;;;;;;;11.05;5.75;;;-3.10;99.90;;;;;;5054351;28;20430;-77
2023/01/17 02:00:13;;;;;;;8.98;5.38;;;-3.10;99.90;;;;;;5036685;28;20059;-77
2023/01/17 02:02:40;;;;;;;7.72;5.45;;;-3.10;99.90;;;;;;5019246;28;20041;-78
2023/01/17 02:05:06;;;;;;;8.82;4.68;;;-3.10;99.90;;;;;;5039391;28;20045;-78
2023/01/17 02:07:33;;;;;;;7.07;4.95;;;-3.10;99.90;;;;;;5057698;28;20468;-78
2023/01/17 02:10:00;;;;;;;7.40;5.22;;;-3.10;99.90;;;;;;5056895;28;20128;-78
2023/01/17 02:12:27;;;;;;;8.52;5.97;;;-3.10;99.90;;;;;;5039972;28;20032;-78
2023/01/17 02:14:54;;;;;;;8.70;5.50;;;-3.00;99.90;;;;;;5057854;28;20052;-78
2023/01/17 02:17:20;;;;;;;10.95;6.13;;;-3.00;99.90;;;;;;5039174;28;20049;-78
2023/01/17 02:19:47;;;;;;;7.60;4.70;;;-3.00;99.90;;;;;;5040353;28;20070;-78
2023/01/17 02:22:14;;;;;;;7.75;5.20;;;-3.10;99.90;;;;;;5056747;28;20033;-78
2023/01/17 02:24:40;;;;;;;9.38;6.53;;;-3.10;99.90;;;;;;5039578;28;20144;-77
2023/01/17 02:27:07;;;;;;;8.23;5.28;;;-3.20;99.90;;;;;;5040608;28;20037;-78
2023/01/17 02:29:34;;;;;;;5.60;4.47;;;-3.30;99.90;;;;;;5056400;28;20056;-78
2023/01/17 02:32:02;;;;;;;9.55;5.72;;;-3.30;99.90;;;;;;5023767;28;20037;-78
2023/01/17 02:34:28;;;;;;;8.38;5.72;;;-3.30;99.90;;;;;;5023062;28;20045;-78
2023/01/17 02:36:56;;;;;;;6.60;4.60;;;-3.40;99.90;;;;;;5038852;28;20045;-77
2023/01/17 02:39:23;;;;;;;7.32;4.68;;;-3.50;99.90;;;;;;5039406;28;20498;-78
2023/01/17 02:41:49;;;;;;;6.88;4.53;;;-3.50;99.90;;;;;;5038654;28;20041;-78
2023/01/17 02:44:16;;;;;;;7.60;5.03;;;-3.50;99.90;;;;;;5056976;28;20045;-77
2023/01/17 02:46:43;;;;;;;11.30;5.85;;;-3.50;99.90;;;;;;5039224;28;20533;-78
2023/01/17 02:49:09;;;;;;;11.77;5.05;;;-3.40;99.90;;;;;;5038437;28;20048;-78
2023/01/17 02:51:37;;;;;;;9.45;5.35;;;-3.40;99.90;;;;;;5022927;28;20467;-78
2023/01/17 02:54:04;;;;;;;6.50;4.75;;;-3.40;99.90;;;;;;5039014;28;20395;-78
2023/01/17 02:56:31;;;;;;;8.75;5.25;;;-3.40;99.90;;;;;;5056061;28;20040;-78
2023/01/17 02:58:58;;;;;;;7.70;5.35;;;-3.50;99.90;;;;;;5039950;28;20139;-78
2023/01/17 03:01:24;;;;;;;8.45;4.90;;;-3.50;99.90;;;;;;5056725;28;20037;-78
2023/01/17 03:03:52;;;;;;;18.13;5.57;;;-3.60;99.90;;;;;;5037878;28;20472;-78
2023/01/17 03:06:19;;;;;;;6.97;4.57;;;-3.60;99.90;;;;;;5057053;28;20044;-78
2023/01/17 03:08:46;;;;;;;8.07;4.28;;;-3.60;99.90;;;;;;5055440;28;20037;-78
2023/01/17 03:11:12;;;;;;;10.40;4.32;;;-3.50;99.90;;;;;;5039118;28;20033;-78
2023/01/17 03:13:40;;;;;;;6.28;4.32;;;-3.50;99.90;;;;;;5041470;28;20041;-78
2023/01/17 03:16:06;;;;;;;7.55;4.95;;;-3.40;99.90;;;;;;5034854;28;20076;-78
2023/01/17 03:18:33;;;;;;;6.75;4.53;;;-3.40;99.90;;;;;;5002695;28;20144;-78
2023/01/17 03:21:00;;;;;;;7.72;4.82;;;-3.40;99.90;;;;;;5019266;28;20120;-77
2023/01/17 03:23:27;;;;;;;6.90;4.65;;;-3.30;99.90;;;;;;5017720;28;20042;-78
2023/01/17 03:25:53;;;;;;;7.55;4.13;;;-3.30;99.90;;;;;;5019266;28;20045;-77
2023/01/17 03:28:20;;;;;;;6.15;4.57;;;-3.30;99.90;;;;;;5002597;28;20053;-78
2023/01/17 03:30:46;;;;;;;5.78;4.07;;;-3.20;99.90;;;;;;5036290;28;20441;-77
2023/01/17 03:33:13;;;;;;;7.70;4.32;;;-3.20;99.90;;;;;;5036095;28;20081;-77
2023/01/17 03:35:40;;;;;;;8.05;5.68;;;-3.20;99.90;;;;;;5017553;28;20490;-78
2023/01/17 03:38:06;;;;;;;9.52;4.63;;;-3.20;99.90;;;;;;5018607;28;20460;-78
2023/01/17 03:40:33;;;;;;;8.07;5.28;;;-3.10;99.90;;;;;;5018609;28;20125;-78
2023/01/17 03:43:01;;;;;;;7.55;4.50;;;-3.00;99.90;;;;;;5034977;28;20059;-77
2023/01/17 03:45:28;;;;;;;8.85;5.20;;;-3.10;99.90;;;;;;5035792;28;20045;-78
2023/01/17 03:47:56;;;;;;;10.15;5.50;;;-3.10;99.90;;;;;;5036229;28;20045;-77
2023/01/17 03:50:23;;;;;;;6.50;4.32;;;-3.20;99.90;;;;;;5017848;28;20047;-77
2023/01/17 03:52:50;;;;;;;7.20;4.80;;;-3.30;99.90;;;;;;5018299;28;20046;-77
2023/01/17 03:55:16;;;;;;;7.22;4.40;;;-3.30;99.90;;;;;;5017322;28;20049;-78
2023/01/17 03:57:43;;;;;;;6.47;4.70;;;-3.40;99.90;;;;;;5002248;28;20148;-78
2023/01/17 04:00:09;;;;;;;6.15;4.43;;;-3.50;99.90;;;;;;5018429;28;20037;-77
2023/01/17 04:02:36;;;;;;;9.38;5.43;;;-3.60;99.90;;;;;;5017659;28;20045;-78
2023/01/17 04:05:03;;;;;;;9.93;5.00;;;-3.60;99.90;;;;;;5018143;28;20041;-78
2023/01/17 04:07:29;;;;;;;7.47;4.45;;;-3.60;99.90;;;;;;5017991;28;20144;-78
2023/01/17 04:09:56;;;;;;;6.80;4.97;;;-3.60;99.90;;;;;;5034593;28;20041;-77
2023/01/17 04:12:24;;;;;;;8.82;4.30;;;-3.60;99.90;;;;;;5035577;28;20128;-78
2023/01/17 04:14:50;;;;;;;6.22;4.75;;;-3.50;99.90;;;;;;5018077;28;20045;-78
2023/01/17 04:17:17;;;;;;;6.28;3.90;;;-3.50;99.90;;;;;;5034472;28;20464;-78
2023/01/17 04:19:44;;;;;;;6.60;5.50;;;-3.60;99.90;;;;;;5035534;28;20107;-78
2023/01/17 04:22:10;;;;;;;6.15;4.25;;;-3.60;99.90;;;;;;5017078;28;20076;-78
2023/01/17 04:24:37;;;;;;;5.95;4.07;;;-3.60;99.90;;;;;;5017548;28;20037;-78
2023/01/17 04:27:03;;;;;;;7.63;4.18;;;-3.60;99.90;;;;;;5034888;28;20400;-78
2023/01/17 04:29:30;;;;;;;6.53;4.18;;;-3.60;99.90;;;;;;5017177;28;20064;-78
2023/01/17 04:31:57;;;;;;;8.00;6.03;;;-3.60;99.90;;;;;;5017699;28;20049;-78
2023/01/17 04:34:24;;;;;;;8.02;4.57;;;-3.50;99.90;;;;;;5017522;28;20072;-78
2023/01/17 04:36:50;;;;;;;6.55;5.00;;;-3.50;99.90;;;;;;5034450;28;20056;-77
2023/01/17 04:39:17;;;;;;;6.35;4.57;;;-3.60;99.90;;;;;;5018138;28;20068;-78
2023/01/17 04:41:44;;;;;;;6.32;4.20;;;-3.60;99.90;;;;;;5000357;28;20053;-78
2023/01/17 04:44:11;;;;;;;6.97;4.07;;;-3.70;99.90;;;;;;5017194;28;20033;-78
2023/01/17 04:46:38;;;;;;;6.78;4.85;;;-3.70;99.90;;;;;;5017677;28;20045;-78
2023/01/17 04:49:04;;;;;;;6.80;4.60;;;-3.80;99.90;;;;;;5033863;28;20126;-77
2023/01/17 04:51:31;;;;;;;6.72;4.70;;;-3.80;99.90;;;;;;5017354;28;20068;-78
2023/01/17 04:53:58;;;;;;;6.10;4.07;;;-3.90;99.90;;;;;;5034490;28;20455;-77
2023/01/17 04:56:24;;;;;;;8.75;4.93;;;-3.80;99.90;;;;;;5033860;28;20041;-78
2023/01/17 04:58:51;;;;;;;6.35;4.88;;;-3.70;99.90;;;;;;5034538;28;20049;-78
2023/01/17 05:01:18;;;;;;;9.95;4.45;;;-3.70;99.90;;;;;;5000951;28;20144;-78
2023/01/17 05:03:44;;;;;;;5.53;3.85;;;-3.80;99.90;;;;;;5033356;28;20055;-78
2023/01/17 05:06:11;;;;;;;9.35;4.10;;;-3.90;99.90;;;;;;5034629;28;20041;-77
2023/01/17 05:08:38;;;;;;;5.72;4.03;;;-3.90;99.90;;;;;;5033463;28;20045;-78
2023/01/17 05:11:04;;;;;;;7.28;4.35;;;-4.00;99.90;;;;;;5034411;28;20452;-78
2023/01/17 05:13:31;;;;;;;7.55;3.85;;;-4.00;99.90;;;;;;5047734;28;20411;-77
2023/01/17 05:15:57;;;;;;;5.68;4.00;;;-4.00;99.90;;;;;;5035855;28;20045;-78
2023/01/17 05:18:24;;;;;;;7.05;4.78;;;-4.10;99.90;;;;;;5054444;28;20047;-78
2023/01/17 05:20:51;;;;;;;7.00;4.03;;;-4.20;99.90;;;;;;5054327;28;20052;-77
2023/01/17 05:23:18;;;;;;;6.57;4.00;;;-4.20;99.90;;;;;;5035472;28;20415;-78
2023/01/17 05:25:44;;;;;;;5.97;4.15;;;-4.30;99.90;;;;;;5054610;28;20123;-78
2023/01/17 05:28:11;;;;;;;7.60;4.10;;;-4.40;99.90;;;;;;5054504;28;20482;-77
2023/01/17 05:30:38;;;;;;;5.95;3.80;;;-4.30;99.90;;;;;;5036067;28;20406;-78
2023/01/17 05:33:04;;;;;;;6.45;3.83;;;-4.30;99.90;;;;;;5020291;28;20048;-78
2023/01/17 05:35:31;;;;;;;6.93;3.80;;;-4.20;99.90;;;;;;5053077;28;20045;-78
2023/01/17 05:37:58;;;;;;;5.47;3.45;;;-4.30;99.90;;;;;;5054074;28;20048;-77
2023/01/17 05:40:24;;;;;;;6.47;3.38;;;-4.40;99.90;;;;;;5040427;28;20045;-78
2023/01/17 05:42:51;;;;;;;4.82;3.38;;;-4.40;99.90;;;;;;5057524;28;20045;-78
2023/01/17 05:45:18;;;;;;;9.20;3.92;;;-4.50;99.90;;;;;;5057839;28;20443;-78
2023/01/17 05:47:44;;;;;;;7.55;3.63;;;-4.50;99.90;;;;;;5040426;28;20058;-78
2023/01/17 05:50:11;;;;;;;6.68;3.80;;;-4.60;99.90;;;;;;5057170;28;20053;-78
2023/01/17 05:52:38;;;;;;;7.93;3.70;;;-4.60;99.90;;;;;;5040349;28;20037;-78
2023/01/17 05:55:06;;;;;;;7.90;4.43;;;-4.60;99.90;;;;;;5039185;28;20063;-78
2023/01/17 05:57:32;;;;;;;7.88;4.32;;;-4.60;99.90;;;;;;5040485;28;20049;-78
2023/01/17 05:59:59;;;;;;;7.22;4.30;;;-4.70;99.90;;;;;;5057776;28;20033;-78
2023/01/17 06:02:26;;;;;;;6.45;4.45;;;-4.70;99.90;;;;;;5056934;28;20382;-77
2023/01/17 06:04:53;;;;;;;8.10;5.55;;;-4.70;99.90;;;;;;5039749;28;20136;-77
2023/01/17 06:07:19;;;;;;;7.18;3.85;;;-4.70;99.90;;;;;;5040382;28;20065;-77
2023/01/17 06:09:46;;;;;;;10.63;4.78;;;-4.70;99.90;;;;;;5039134;28;20136;-77
2023/01/17 06:12:13;;;;;;;7.82;4.10;;;-4.70;99.90;;;;;;5037445;28;20041;-78
2023/01/17 06:14:39;;;;;;;6.95;3.42;;;-4.70;99.90;;;;;;5037353;28;20046;-78
2023/01/17 06:17:06;;;;;;;5.85;3.90;;;-4.80;99.90;;;;;;5036856;28;20125;-77
2023/01/17 06:19:32;;;;;;;8.02;4.60;;;-4.70;99.90;;;;;;5020172;28;20515;-78
2023/01/17 06:21:59;;;;;;;11.00;5.07;;;-4.60;99.90;;;;;;5036584;28;20045;-78
2023/01/17 06:24:26;;;;;;;5.60;4.50;;;-4.60;99.90;;;;;;5037135;28;20120;-77
2023/01/17 06:26:53;;;;;;;8.43;3.97;;;-4.60;99.90;;;;;;5020322;28;20038;-78
2023/01/17 06:29:19;;;;;;;6.90;3.53;;;-4.70;99.90;;;;;;5003158;28;20495;-77
2023/01/17 06:31:46;;;;;;;6.45;4.10;;;-4.80;99.90;;;;;;5037275;28;20053;-78
2023/01/17 06:34:13;;;;;;;5.40;3.75;;;-4.90;99.90;;;;;;5019764;28;20059;-77
2023/01/17 06:36:39;;;;;;;7.40;3.95;;;-4.90;99.90;;;;;;5019122;28;20048;-78
2023/01/17 06:39:06;;;;;;;9.57;4.03;;;-4.90;99.90;;;;;;5019864;28;20037;-78
2023/01/17 06:41:32;;;;;;;7.22;3.72;;;-4.90;99.90;;;;;;5019860;28;20045;-78
2023/01/17 06:43:59;;;;;;;6.18;3.78;;;-4.90;99.90;;;;;;5035924;28;20478;-78
2023/01/17 06:46:26;;;;;;;5.90;3.42;;;-4.90;99.90;;;;;;5019655;28;20037;-77
2023/01/17 06:48:53;;;;;;;5.90;4.30;;;-4.90;99.90;;;;;;5018668;28;20083;-78
2023/01/17 06:51:20;;;;;;;5.13;3.13;;;-5.00;99.90;;;;;;5018372;28;20460;-78
2023/01/17 06:53:47;;;;;;;5.32;3.75;;;-5.00;99.90;;;;;;5002927;28;20053;-77
2023/01/17 06:56:13;;;;;;;7.15;3.70;;;-5.00;99.90;;;;;;5018818;28;20060;-77
2023/01/17 06:58:40;;;;;;;9.93;4.72;;;-5.00;99.90;;;;;;5036906;28;20042;-78
2023/01/17 07:01:07;;;;;;;5.63;3.85;;;-5.00;99.90;;;;;;5003087;28;20060;-78
2023/01/17 07:03:34;;;;;;;6.18;3.60;;;-5.00;99.90;;;;;;5035560;28;20479;-78
2023/01/17 07:06:00;;;;;;;5.82;3.90;;;-5.00;99.90;;;;;;5019494;28;20056;-78
2023/01/17 07:08:27;;;;;;;6.22;4.20;;;-5.00;99.90;;;;;;5035898;28;20107;-78
2023/01/17 07:10:55;;;;;;;6.07;4.15;;;-5.00;99.90;;;;;;5002890;28;20049;-77
2023/01/17 07:13:21;;;;;;;6.80;4.65;;;-4.90;99.90;;;;;;5036306;28;20817;-77
2023/01/17 07:15:48;;;;;;;6.88;4.40;;;-4.90;99.90;;;;;;5018486;28;20107;-78
2023/01/17 07:18:19;;;;;;;8.25;4.50;;;-4.90;99.90;;;;;;5036443;28;20048;-77
2023/01/17 07:20:45;;;;;;;10.45;5.10;;;-4.90;99.90;;;;;;5019358;28;20042;-77
2023/01/17 07:23:12;;;;;;;6.43;3.92;;;-4.90;99.90;;;;;;5018178;28;20052;-78
2023/01/17 07:25:39;;;;;;;7.18;4.28;;;-5.00;99.90;;;;;;5002578;28;20112;-77
2023/01/17 07:28:06;;;;;;;7.18;3.90;;;-4.90;99.90;;;;;;5018833;28;20046;-78
2023/01/17 07:30:32;;;;;;;8.90;4.55;;;-5.00;99.90;;;;;;5001618;28;20046;-77
2023/01/17 07:33:00;;;;;;;6.57;4.60;;;-5.00;99.90;;;;;;5018812;28;20052;-77
2023/01/17 07:35:26;;;;;;;7.03;5.13;;;-4.90;99.90;;;;;;5035299;28;20050;-77
2023/01/17 07:37:53;;;;;;;8.57;5.15;;;-4.90;99.90;;;;;;5036090;28;20049;-78
2023/01/17 07:40:20;;;;;;;7.75;5.07;;;-4.80;99.90;;;;;;5036097;28;20049;-78
2023/01/17 07:42:46;;;;;;;7.63;4.80;;;-4.70;99.90;;;;;;5017523;28;20115;-78
2023/01/17 07:45:13;;;;;;;10.25;4.75;;;-4.70;99.90;;;;;;5035591;28;20415;-77
2023/01/17 07:47:40;;;;;;;7.85;5.28;;;-4.70;99.90;;;;;;5035947;28;20045;-77
2023/01/17 07:50:08;;;;;;;11.40;6.70;;;-4.60;99.90;;;;;;5034750;28;20054;-77
2023/01/17 07:52:36;;;;;;;10.40;6.07;;;-4.70;99.90;;;;;;5035768;28;20037;-78
2023/01/17 07:55:03;;;;;;;8.35;5.63;;;-4.70;99.90;;;;;;5017286;28;20045;-78
2023/01/17 07:57:31;;;;;;;7.63;5.18;;;-4.70;99.90;;;;;;5035728;28;20460;-78
2023/01/17 07:59:58;;;;;;;8.13;4.68;;;-4.60;99.90;;;;;;5035668;28;20045;-79
2023/01/17 08:02:25;;;;;;;8.40;6.13;;;-4.60;99.90;;;;;;5034443;28;20471;-78
2023/01/17 08:04:52;;;;;;;7.53;4.00;;;-4.60;99.90;;;;;;5035211;28;20121;-78
2023/01/17 08:07:19;;;;;;;7.80;4.50;;;-4.60;99.90;;;;;;5001836;28;20053;-77
2023/01/17 08:09:48;;;;;;;8.25;4.53;;;-4.70;99.90;;;;;;5017086;28;20459;-79
2023/01/17 08:12:15;;;;;;;6.60;4.05;;;-4.70;99.90;;;;;;5021310;28;20037;-78
2023/01/17 08:14:42;;;;;;;7.57;4.10;;;-4.70;99.90;;;;;;5054381;28;20049;-78
2023/01/17 08:17:08;;;;;;;7.38;4.47;;;-4.80;99.90;;;;;;5044278;28;20045;-78
2023/01/17 08:19:35;;;;;;;6.65;4.32;;;-4.80;99.90;;;;;;5026741;28;20045;-77
2023/01/17 08:22:01;;;;;;;8.38;5.03;;;-4.80;99.90;;;;;;5024912;28;20530;-78
2023/01/17 08:24:29;;;;;;;12.65;5.40;;;-4.70;99.90;;;;;;5020456;28;20060;-77
2023/01/17 08:26:56;;;;;;;8.82;4.78;;;-4.60;99.90;;;;;;5046996;28;20032;-77
2023/01/17 08:29:22;;;;;;;10.27;5.57;;;-4.60;99.90;;;;;;5026637;28;20124;-77
2023/01/17 08:31:49;;;;;;;6.60;4.50;;;-4.60;99.90;;;;;;5042995;28;20038;-78
2023/01/17 08:34:16;;;;;;;7.28;5.10;;;-4.50;99.90;;;;;;5047383;28;20052;-78
2023/01/17 08:36:43;;;;;;;6.55;5.45;;;-4.40;99.90;;;;;;5036789;28;20044;-77
2023/01/17 08:39:11;;;;;;;5.68;4.93;;;-4.30;99.90;;;;;;5017440;28;20045;-77
2023/01/17 08:41:38;;;;;;;16.08;4.30;;;-4.30;99.90;;;;;;5034867;28;20499;-76
2023/01/17 08:44:05;;;;;;;9.52;5.80;;;-4.20;99.90;;;;;;5016408;28;20038;-77
2023/01/17 08:46:32;;;;;;;8.77;5.15;;;-4.10;99.90;;;;;;5034927;28;20048;-77
2023/01/17 08:48:58;;;;;;;9.27;4.32;;;-4.00;99.90;;;;;;5016392;28;20060;-77
2023/01/17 08:51:25;;;;;;;8.70;5.00;;;-3.90;99.90;;;;;;5017421;28;20108;-77
2023/01/17 08:53:52;;;;;;;7.30;4.28;;;-3.80;99.90;;;;;;5034696;28;20395;-77
2023/01/17 08:56:19;;;;;;;8.10;4.22;;;-3.70;99.90;;;;;;5044814;28;20040;-77
2023/01/17 08:58:45;;;;;;;9.52;5.50;;;-3.70;99.90;;;;;;5031108;28;20410;-77
2023/01/17 09:01:12;;;;;;;13.00;6.55;;;-3.60;99.90;;;;;;5036960;28;20041;-77
2023/01/17 09:03:40;;;;;;;7.75;5.25;;;-3.50;99.90;;;;;;5035342;28;20037;-78
2023/01/17 09:06:07;;;;;;;7.95;5.05;;;-3.40;99.90;;;;;;5019691;28;20045;-78
2023/01/17 09:08:33;;;;;;;9.02;5.45;;;-3.30;99.90;;;;;;5031535;28;20033;-78
2023/01/17 09:11:00;;;;;;;9.52;5.10;;;-3.30;99.90;;;;;;5016753;28;20145;-78
2023/01/17 09:13:28;;;;;;;11.00;5.88;;;-3.10;99.90;;;;;;5033700;28;20038;-78
2023/01/17 09:15:55;;;;;;;7.97;5.72;;;-3.00;99.90;;;;;;5016084;28;20120;-78
2023/01/17 09:18:21;;;;;;;9.48;5.88;;;-3.00;99.90;;;;;;5033898;28;20057;-77
2023/01/17 09:20:48;;;;;;;11.13;6.00;;;-2.90;99.90;;;;;;5033990;28;20045;-77
2023/01/17 09:23:15;;;;;;;6.38;4.43;;;-2.90;99.90;;;;;;5033226;28;20103;-77
2023/01/17 09:25:43;;;;;;;8.20;5.32;;;-2.80;99.90;;;;;;5016243;28;20460;-77
2023/01/17 09:28:10;;;;;;;11.75;5.80;;;-2.80;99.90;;;;;;5016821;28;20419;-77
2023/01/17 09:30:36;;;;;;;7.93;4.43;;;-2.70;99.90;;;;;;5033456;28;20052;-77
2023/01/17 09:33:03;;;;;;;8.07;4.93;;;-2.60;99.90;;;;;;5033573;28;20045;-77
2023/01/17 09:35:30;;;;;;;8.45;5.10;;;-2.60;99.90;;;;;;5016725;28;20045;-77
2023/01/17 09:37:57;;;;;;;9.90;6.05;;;-2.60;99.90;;;;;;5032689;28;20455;-77
2023/01/17 09:40:23;;;;;;;7.03;5.03;;;-2.50;99.90;;;;;;5022577;28;20757;-78
2023/01/17 09:42:50;;;;;;;10.13;5.53;;;-2.50;99.90;;;;;;5033263;28;20391;-78
2023/01/17 09:45:17;;;;;;;8.35;6.32;;;-2.40;99.90;;;;;;5034032;28;20132;-79
2023/01/17 09:47:44;;;;;;;8.93;5.10;;;-2.30;99.90;;;;;;5033988;28;20079;-79
2023/01/17 09:50:10;;;;;;;8.45;5.63;;;-2.20;99.90;;;;;;5025758;28;20119;-78
2023/01/17 09:52:38;;;;;;;9.88;5.53;;;-2.10;99.90;;;;;;5025977;28;20128;-77
2023/01/17 09:55:05;;;;;;;8.90;5.00;;;-1.90;99.90;;;;;;5035393;28;20052;-79
2023/01/17 09:57:33;;;;;;;7.60;4.50;;;-1.90;99.90;;;;;;5036629;28;20848;-79
2023/01/17 10:00:00;;;;;;;10.05;6.15;;;-1.80;99.90;;;;;;5036717;28;20048;-78
2023/01/17 10:02:34;;;;;;;11.65;6.82;;;-1.70;99.90;;;;;;5036230;28;20064;-77
2023/01/17 10:05:01;;;;;;;11.40;5.95;;;-1.60;99.90;;;;;;5028198;28;20455;-78
2023/01/17 10:07:27;;;;;;;8.73;5.53;;;-1.50;99.90;;;;;;5053755;28;20041;-78
2023/01/17 10:09:54;;;;;;;8.80;5.82;;;-1.40;99.90;;;;;;5032861;28;20037;-77
2023/01/17 10:12:20;;;;;;;10.32;5.35;;;-1.40;99.90;;;;;;5037268;28;20040;-79
2023/01/17 10:14:47;;;;;;;9.27;6.75;;;-1.30;99.90;;;;;;5051887;28;20430;-76
2023/01/17 10:17:15;;;;;;;10.27;6.22;;;-1.30;99.90;;;;;;5052245;28;20048;-77
2023/01/17 10:19:41;;;;;;;8.52;5.28;;;-1.20;99.90;;;;;;5019364;28;20044;-78
2023/01/17 10:22:09;;;;;;;9.38;6.78;;;-1.20;99.90;;;;;;5051230;28;20103;-77
2023/01/17 10:24:35;;;;;;;8.98;4.95;;;-1.10;99.90;;;;;;4933120;28;23555;-77
2023/01/17 10:27:02;;;;;;;6.20;4.75;;;-1.10;99.90;;;;;;5031465;28;20057;-77
2023/01/17 10:29:29;;;;;;;7.22;5.03;;;-1.00;99.90;;;;;;5021537;28;20041;-77
2023/01/17 10:31:55;;;;;;;8.48;5.13;;;-0.90;99.90;;;;;;5038715;28;20040;-77
2023/01/17 10:34:22;;;;;;;8.07;5.80;;;-0.80;99.90;;;;;;5038351;28;20059;-77
2023/01/17 10:36:48;;;;;;;12.35;6.85;;;-0.60;99.90;;;;;;5038239;28;20037;-78
2023/01/17 10:39:15;;;;;;;10.15;5.20;;;-0.50;99.90;;;;;;5038947;28;20037;-77
2023/01/17 10:41:42;;;;;;;12.50;6.53;;;-0.40;99.90;;;;;;5039148;28;20041;-77
2023/01/17 10:44:08;;;;;;;8.80;5.90;;;-0.30;99.90;;;;;;5055968;28;20075;-77
2023/01/17 10:46:35;;;;;;;9.43;5.20;;;-0.20;99.90;;;;;;5055864;28;20056;-77
2023/01/17 10:49:02;;;;;;;8.25;5.25;;;-0.20;99.90;;;;;;5037697;28;20087;-78
2023/01/17 10:51:29;;;;;;;6.68;5.20;;;-0.10;99.90;;;;;;5039044;28;20132;-78
2023/01/17 10:53:55;;;;;;;7.55;6.45;;;-0.10;99.90;;;;;;5038102;28;20043;-77
2023/01/17 10:56:22;;;;;;;11.50;7.90;;;0.10;99.90;;;;;;5055387;28;20048;-78
2023/01/17 10:58:49;;;;;;;10.80;7.30;;;0.20;99.90;;;;;;5055996;28;20147;-78
2023/01/17 11:01:15;;;;;;;12.15;7.10;;;0.30;99.90;;;;;;5038423;28;20062;-76
2023/01/17 11:03:44;;;;;;;10.90;6.95;;;0.30;99.90;;;;;;5037249;28;20095;-78
2023/01/17 11:06:10;;;;;;;8.70;6.47;;;0.30;99.90;;;;;;5038762;28;20040;-77
2023/01/17 11:08:37;;;;;;;11.23;6.40;;;0.30;99.90;;;;;;5054612;28;20047;-78
2023/01/17 11:11:03;;;;;;;6.68;5.07;;;0.40;99.90;;;;;;5055807;28;20064;-77
2023/01/17 11:13:30;;;;;;;9.50;6.25;;;0.40;99.90;;;;;;5037799;28;20424;-78
2023/01/17 11:15:57;;;;;;;7.80;6.55;;;0.60;99.90;;;;;;5055724;28;20052;-78
2023/01/17 11:18:26;;;;;;;12.95;6.75;;;0.70;99.90;;;;;;5056437;28;20045;-77
2023/01/17 11:20:53;;;;;;;10.35;5.72;;;0.70;99.90;;;;;;5022470;28;20375;-77
2023/01/17 11:23:22;;;;;;;13.88;6.60;;;0.70;99.90;;;;;;5054760;28;20049;-77
2023/01/17 11:25:49;;;;;;;9.43;6.65;;;0.80;99.90;;;;;;5022139;28;20044;-77
2023/01/17 11:28:15;;;;;;;11.18;7.20;;;0.80;99.90;;;;;;5038894;28;20041;-77
2023/01/17 11:30:42;;;;;;;12.02;6.20;;;0.90;99.90;;;;;;5037586;28;20063;-77
2023/01/17 11:33:09;;;;;;;12.13;7.63;;;1.00;99.90;;;;;;5055638;28;20453;-77
2023/01/17 11:35:36;;;;;;;15.57;9.68;;;1.10;99.90;;;;;;5054974;28;20472;-77
2023/01/17 11:38:03;;;;;;;12.95;8.50;;;1.10;99.90;;;;;;5055640;28;20125;-77
2023/01/17 11:40:29;;;;;;;17.00;10.82;;;1.20;99.90;;;;;;5055899;28;20079;-77
2023/01/17 11:42:56;;;;;;;19.17;10.55;;;1.50;99.90;;;;;;5051683;28;20055;-78
2023/01/17 11:45:23;;;;;;;13.85;9.93;;;1.80;99.90;;;;;;5038214;28;20466;-77
2023/01/17 11:47:50;;;;;;;12.77;8.43;;;2.00;99.90;;;;;;5055520;28;20069;-77
2023/01/17 11:50:16;;;;;;;13.48;9.35;;;2.00;99.90;;;;;;5036221;28;20407;-77
2023/01/17 11:52:43;;;;;;;12.43;8.60;;;1.90;99.90;;;;;;5037418;28;20486;-76
2023/01/17 11:55:12;;;;;;;14.85;8.48;;;1.80;99.90;;;;;;5037397;28;20110;-77
2023/01/17 11:57:39;;;;;;;13.70;8.60;;;1.70;99.90;;;;;;5038289;28;20124;-78
2023/01/17 12:00:06;;;;;;;13.65;9.48;;;1.70;99.90;;;;;;5054771;28;20041;-77
2023/01/17 12:02:39;;;;;;;16.15;9.57;;;1.70;99.90;;;;;;5053975;28;20118;-78
2023/01/17 12:05:06;;;;;;;11.93;8.68;;;1.60;99.90;;;;;;5055261;28;20136;-78
2023/01/17 12:07:33;;;;;;;13.73;9.43;;;1.60;99.90;;;;;;5055195;28;20102;-77
2023/01/17 12:10:03;;;;;;;14.80;9.93;;;1.60;99.90;;;;;;5054380;28;20067;-77
2023/01/17 12:15:15;;;;;;;16.38;9.52;;;1.70;99.90;;;;;;5054242;28;20048;-78
2023/01/17 12:17:42;;;;;;;14.60;9.80;;;1.70;99.90;;;;;;5054213;28;20044;-77
2023/01/17 12:20:11;;;;;;;16.13;9.52;;;1.70;99.90;;;;;;5055064;28;20041;-77
2023/01/17 12:25:23;;;;;;;15.02;9.93;;;1.60;99.90;;;;;;5054828;28;20048;-77
2023/01/17 12:27:50;;;;;;;14.30;9.02;;;1.60;99.90;;;;;;5037169;28;20044;-78
2023/01/17 12:30:16;;;;;;;16.88;9.65;;;1.60;99.90;;;;;;5036166;28;20079;-80
2023/01/17 12:32:44;;;;;;;13.25;9.55;;;1.70;99.90;;;;;;5055017;28;20029;-79
2023/01/17 12:35:11;;;;;;;15.98;9.18;;;1.70;99.90;;;;;;5054303;28;20052;-81
2023/01/17 12:37:37;;;;;;;14.63;9.02;;;1.70;99.90;;;;;;5020653;28;20037;-79
2023/01/17 12:40:04;;;;;;;17.08;8.63;;;1.80;99.90;;;;;;5037315;28;20052;-78
2023/01/17 12:42:31;;;;;;;17.17;9.52;;;1.80;99.90;;;;;;5036357;28;20375;-78
2023/01/17 12:44:58;;;;;;;13.27;8.35;;;1.80;99.90;;;;;;5037204;28;20076;-79
2023/01/17 12:47:24;;;;;;;15.80;8.70;;;1.80;99.90;;;;;;5054624;28;20376;-79
2023/01/17 12:49:51;;;;;;;13.82;8.50;;;1.80;99.90;;;;;;5052964;28;20143;-78
2023/01/17 12:52:19;;;;;;;15.07;9.25;;;1.80;99.90;;;;;;5036874;28;20521;-81
2023/01/17 12:54:45;;;;;;;11.70;7.55;;;1.80;99.90;;;;;;5036774;28;20044;-79
2023/01/17 12:57:12;;;;;;;15.93;8.38;;;1.90;99.90;;;;;;5054009;28;20052;-78
2023/01/17 12:59:39;;;;;;;14.30;7.75;;;1.90;99.90;;;;;;5037025;28;20486;-80
2023/01/17 13:02:06;;;;;;;14.00;7.75;;;1.90;99.90;;;;;;5053811;28;20044;-77
2023/01/17 13:04:33;;;;;;;14.07;7.75;;;1.90;99.90;;;;;;5036919;28;20364;-78
2023/01/17 13:06:59;;;;;;;12.55;7.28;;;2.00;99.90;;;;;;5054173;28;20041;-78
2023/01/17 13:09:26;;;;;;;9.20;6.95;;;2.00;99.90;;;;;;5049969;28;20037;-78
2023/01/17 13:11:53;;;;;;;11.48;7.25;;;2.00;99.90;;;;;;5026848;28;20051;-79
2023/01/17 13:14:20;;;;;;;10.77;7.00;;;2.00;99.90;;;;;;5031437;28;20048;-78
2023/01/17 13:16:47;;;;;;;10.63;7.90;;;2.00;99.90;;;;;;5053051;28;20045;-78
2023/01/17 13:19:13;;;;;;;15.27;6.93;;;2.00;99.90;;;;;;5047776;28;20048;-78
2023/01/17 13:21:40;;;;;;;10.60;7.43;;;2.00;99.90;;;;;;5048397;28;20045;-78
2023/01/17 13:24:08;;;;;;;13.77;9.25;;;2.00;99.90;;;;;;5045332;28;20061;-78
2023/01/17 13:26:35;;;;;;;14.63;8.50;;;2.00;99.90;;;;;;5074670;28;20040;-80
2023/01/17 13:29:02;;;;;;;10.43;7.97;;;2.10;99.90;;;;;;5046762;28;20430;-77
2023/01/17 13:31:28;;;;;;;13.40;7.93;;;2.10;99.90;;;;;;5054192;28;20094;-81
2023/01/17 13:33:56;;;;;;;14.32;9.48;;;2.10;99.90;;;;;;5044290;28;20113;-77
2023/01/17 13:36:27;;;;;;;15.55;8.95;;;2.20;99.90;;;;;;5039420;28;20041;-79
2023/01/17 13:38:56;;;;;;;17.27;9.25;;;2.30;99.90;;;;;;5074428;28;20055;-79
2023/01/17 13:41:22;;;;;;;15.57;8.85;;;2.30;99.90;;;;;;5056530;28;20040;-79
2023/01/17 13:46:35;;;;;;;10.70;7.32;;;2.40;99.90;;;;;;5073809;28;20051;-77
2023/01/17 13:49:02;;;;;;;10.07;6.90;;;2.40;99.90;;;;;;5065189;28;20041;-77
2023/01/17 13:51:28;;;;;;;12.13;7.80;;;2.40;99.90;;;;;;5054103;28;20037;-77
2023/01/17 13:53:55;;;;;;;11.95;7.53;;;2.40;99.90;;;;;;5059703;28;20032;-79
2023/01/17 13:56:22;;;;;;;11.07;7.55;;;2.40;99.90;;;;;;5054506;28;20041;-80
2023/01/17 13:58:50;;;;;;;17.00;10.05;;;2.30;99.90;;;;;;5053430;28;20029;-77
2023/01/17 14:01:17;;;;;;;15.13;7.93;;;2.30;99.90;;;;;;5059653;28;20059;-76
2023/01/17 14:03:45;;;;;;;12.20;8.48;;;2.30;99.90;;;;;;5059379;28;20048;-79
2023/01/17 14:06:12;;;;;;;14.88;8.70;;;2.30;99.90;;;;;;5057866;28;20207;-77
2023/01/17 14:08:39;;;;;;;13.50;9.55;;;2.30;99.90;;;;;;5059066;28;20036;-76